sensor_id;sensor_type;location;lat;lon;timestamp;temperature;humidity
9658;DHT22;4867;48.112;11.622;2023-09-12T00:02:16;18.50;99.90
9658;DHT22;4867;48.112;11.622;2023-09-12T00:04:43;18.50;99.90
9658;DHT22;4867;48.112;11.622;2023-09-12T00:07:11;18.50;99.90
9658;DHT22;4867;48.112;11.622;2023-09-12T00:09:38;18.50;99.90
9658;DHT22;4867;48.112;11.622;2023-09-12T00:12:05;18.50;99.90
9658;DHT22;4867;48.112;11.622;2023-09-12T00:14:33;18.50;99.90
9658;DHT22;4867;48.112;11.622;2023-09-12T00:17:00;18.50;99.90
9658;DHT22;4867;48.112;11.622;2023-09-12T00:19:27;18.50;99.90
9658;DHT22;4867;48.112;11.622;2023-09-12T00:21:54;18.50;99.90
9658;DHT22;4867;48.112;11.622;2023-09-12T00:24:22;18.40;99.90
9658;DHT22;4867;48.112;11.622;2023-09-12T00:26:49;18.40;99.90
9658;DHT22;4867;48.112;11.622;2023-09-12T00:29:17;18.30;99.90
9658;DHT22;4867;48.112;11.622;2023-09-12T00:31:45;18.30;99.90
9658;DHT22;4867;48.112;11.622;2023-09-12T00:34:16;18.30;99.90
9658;DHT22;4867;48.112;11.622;2023-09-12T00:36:44;18.20;99.90
9658;DHT22;4867;48.112;11.622;2023-09-12T00:39:11;18.20;99.90
9658;DHT22;4867;48.112;11.622;2023-09-12T00:41:39;18.20;99.90
9658;DHT22;4867;48.112;11.622;2023-09-12T00:44:06;18.10;99.90
9658;DHT22;4867;48.112;11.622;2023-09-12T00:46:34;18.10;99.90
9658;DHT22;4867;48.112;11.622;2023-09-12T00:49:04;18.10;99.90
9658;DHT22;4867;48.112;11.622;2023-09-12T00:51:33;18.00;99.90
9658;DHT22;4867;48.112;11.622;2023-09-12T00:54:03;18.00;99.90
9658;DHT22;4867;48.112;11.622;2023-09-12T00:56:31;18.00;99.90
9658;DHT22;4867;48.112;11.622;2023-09-12T00:58:59;17.90;99.90
9658;DHT22;4867;48.112;11.622;2023-09-12T01:01:26;17.90;99.90
9658;DHT22;4867;48.112;11.622;2023-09-12T01:03:54;17.90;99.90
9658;DHT22;4867;48.112;11.622;2023-09-12T01:06:24;17.90;99.90
9658;DHT22;4867;48.112;11.622;2023-09-12T01:08:55;17.80;99.90
9658;DHT22;4867;48.112;11.622;2023-09-12T01:11:23;17.90;99.90
9658;DHT22;4867;48.112;11.622;2023-09-12T01:13:51;17.80;99.90
9658;DHT22;4867;48.112;11.622;2023-09-12T01:16:18;17.80;99.90
9658;DHT22;4867;48.112;11.622;2023-09-12T01:18:46;17.80;99.90
9658;DHT22;4867;48.112;11.622;2023-09-12T01:24:12;17.70;99.90
9658;DHT22;4867;48.112;11.622;2023-09-12T01:26:59;17.70;99.90
9658;DHT22;4867;48.112;11.622;2023-09-12T01:29:31;17.60;99.90
9658;DHT22;4867;48.112;11.622;2023-09-12T01:31:58;17.60;99.90
9658;DHT22;4867;48.112;11.622;2023-09-12T01:34:28;17.50;99.90
9658;DHT22;4867;48.112;11.622;2023-09-12T01:36:55;17.50;99.90
9658;DHT22;4867;48.112;11.622;2023-09-12T01:39:22;17.40;99.90
9658;DHT22;4867;48.112;11.622;2023-09-12T01:41:52;17.50;99.90
9658;DHT22;4867;48.112;11.622;2023-09-12T01:44:21;17.50;99.90
9658;DHT22;4867;48.112;11.622;2023-09-12T01:46:51;17.50;99.90
9658;DHT22;4867;48.112;11.622;2023-09-12T01:49:22;17.50;99.90
9658;DHT22;4867;48.112;11.622;2023-09-12T01:51:51;17.50;99.90
9658;DHT22;4867;48.112;11.622;2023-09-12T01:54:20;17.50;99.90
9658;DHT22;4867;48.112;11.622;2023-09-12T01:56:49;17.40;99.90
9658;DHT22;4867;48.112;11.622;2023-09-12T01:59:17;17.40;99.90
9658;DHT22;4867;48.112;11.622;2023-09-12T02:01:45;17.40;99.90
9658;DHT22;4867;48.112;11.622;2023-09-12T02:04:13;17.30;99.90
9658;DHT22;4867;48.112;11.622;2023-09-12T02:06:40;17.30;99.90
9658;DHT22;4867;48.112;11.622;2023-09-12T02:09:07;17.20;99.90
9658;DHT22;4867;48.112;11.622;2023-09-12T02:11:35;17.20;99.90
9658;DHT22;4867;48.112;11.622;2023-09-12T02:14:02;17.10;99.90
9658;DHT22;4867;48.112;11.622;2023-09-12T02:16:31;17.10;99.90
9658;DHT22;4867;48.112;11.622;2023-09-12T02:18:59;17.10;99.90
9658;DHT22;4867;48.112;11.622;2023-09-12T02:21:26;17.00;99.90
9658;DHT22;4867;48.112;11.622;2023-09-12T02:23:53;17.00;99.90
9658;DHT22;4867;48.112;11.622;2023-09-12T02:26:20;17.00;99.90
9658;DHT22;4867;48.112;11.622;2023-09-12T02:28:48;17.00;99.90
9658;DHT22;4867;48.112;11.622;2023-09-12T02:31:15;17.10;99.90
9658;DHT22;4867;48.112;11.622;2023-09-12T02:33:42;17.00;99.90
9658;DHT22;4867;48.112;11.622;2023-09-12T02:36:10;17.00;99.90
9658;DHT22;4867;48.112;11.622;2023-09-12T02:38:37;17.00;99.90
9658;DHT22;4867;48.112;11.622;2023-09-12T02:41:05;16.90;99.90
9658;DHT22;4867;48.112;11.622;2023-09-12T02:43:32;16.90;99.90
9658;DHT22;4867;48.112;11.622;2023-09-12T02:46:00;16.80;99.90
9658;DHT22;4867;48.112;11.622;2023-09-12T02:48:27;16.80;99.90
9658;DHT22;4867;48.112;11.622;2023-09-12T02:50:55;16.80;99.90
9658;DHT22;4867;48.112;11.622;2023-09-12T02:53:22;16.80;99.90
9658;DHT22;4867;48.112;11.622;2023-09-12T02:55:51;16.80;99.90
9658;DHT22;4867;48.112;11.622;2023-09-12T02:58:18;16.80;99.90
9658;DHT22;4867;48.112;11.622;2023-09-12T03:00:46;16.80;99.90
9658;DHT22;4867;48.112;11.622;2023-09-12T03:03:17;16.70;99.90
9658;DHT22;4867;48.112;11.622;2023-09-12T03:05:45;16.70;99.90
9658;DHT22;4867;48.112;11.622;2023-09-12T03:08:12;16.70;99.90
9658;DHT22;4867;48.112;11.622;2023-09-12T03:10:39;16.60;99.90
9658;DHT22;4867;48.112;11.622;2023-09-12T03:13:07;16.60;99.90
9658;DHT22;4867;48.112;11.622;2023-09-12T03:15:37;16.70;99.90
9658;DHT22;4867;48.112;11.622;2023-09-12T03:18:09;16.60;99.90
9658;DHT22;4867;48.112;11.622;2023-09-12T03:20:40;16.60;99.90
9658;DHT22;4867;48.112;11.622;2023-09-12T03:23:07;16.60;99.90
9658;DHT22;4867;48.112;11.622;2023-09-12T03:25:38;16.60;99.90
9658;DHT22;4867;48.112;11.622;2023-09-12T03:28:06;16.60;99.90
9658;DHT22;4867;48.112;11.622;2023-09-12T03:30:35;16.70;99.90
9658;DHT22;4867;48.112;11.622;2023-09-12T03:33:03;16.60;99.90
9658;DHT22;4867;48.112;11.622;2023-09-12T03:35:34;16.60;99.90
9658;DHT22;4867;48.112;11.622;2023-09-12T03:38:02;16.50;99.90
9658;DHT22;4867;48.112;11.622;2023-09-12T03:40:30;16.50;99.90
9658;DHT22;4867;48.112;11.622;2023-09-12T03:42:58;16.50;99.90
9658;DHT22;4867;48.112;11.622;2023-09-12T03:45:26;16.50;99.90
9658;DHT22;4867;48.112;11.622;2023-09-12T03:47:53;16.40;99.90
9658;DHT22;4867;48.112;11.622;2023-09-12T03:50:21;16.40;99.90
9658;DHT22;4867;48.112;11.622;2023-09-12T03:52:48;16.40;99.90
9658;DHT22;4867;48.112;11.622;2023-09-12T03:55:16;16.40;99.90
9658;DHT22;4867;48.112;11.622;2023-09-12T03:57:44;16.30;99.90
9658;DHT22;4867;48.112;11.622;2023-09-12T04:00:12;16.30;99.90
9658;DHT22;4867;48.112;11.622;2023-09-12T04:02:43;16.30;99.90
9658;DHT22;4867;48.112;11.622;2023-09-12T04:05:10;16.30;99.90
9658;DHT22;4867;48.112;11.622;2023-09-12T04:07:38;16.40;99.90
9658;DHT22;4867;48.112;11.622;2023-09-12T04:10:05;16.30;99.90
9658;DHT22;4867;48.112;11.622;2023-09-12T04:12:33;16.30;99.90
9658;DHT22;4867;48.112;11.622;2023-09-12T04:15:00;16.30;99.90
9658;DHT22;4867;48.112;11.622;2023-09-12T04:17:27;16.30;99.90
9658;DHT22;4867;48.112;11.622;2023-09-12T04:19:54;16.30;99.90
9658;DHT22;4867;48.112;11.622;2023-09-12T04:22:22;16.30;99.90
9658;DHT22;4867;48.112;11.622;2023-09-12T04:24:50;16.30;99.90
9658;DHT22;4867;48.112;11.622;2023-09-12T04:27:17;16.20;99.90
9658;DHT22;4867;48.112;11.622;2023-09-12T04:29:44;16.20;99.90
9658;DHT22;4867;48.112;11.622;2023-09-12T04:32:12;16.20;99.90
9658;DHT22;4867;48.112;11.622;2023-09-12T04:34:42;16.20;99.90
9658;DHT22;4867;48.112;11.622;2023-09-12T04:37:09;16.10;99.90
9658;DHT22;4867;48.112;11.622;2023-09-12T04:39:37;16.20;99.90
9658;DHT22;4867;48.112;11.622;2023-09-12T04:42:04;16.10;99.90
9658;DHT22;4867;48.112;11.622;2023-09-12T04:44:36;16.10;99.90
9658;DHT22;4867;48.112;11.622;2023-09-12T04:47:03;16.20;99.90
9658;DHT22;4867;48.112;11.622;2023-09-12T04:49:31;16.10;99.90
9658;DHT22;4867;48.112;11.622;2023-09-12T04:51:58;16.20;99.90
9658;DHT22;4867;48.112;11.622;2023-09-12T04:54:25;16.20;99.90
9658;DHT22;4867;48.112;11.622;2023-09-12T04:56:53;16.20;99.90
9658;DHT22;4867;48.112;11.622;2023-09-12T04:59:20;16.10;99.90
9658;DHT22;4867;48.112;11.622;2023-09-12T05:01:47;16.10;99.90
9658;DHT22;4867;48.112;11.622;2023-09-12T05:04:15;16.10;99.90
9658;DHT22;4867;48.112;11.622;2023-09-12T05:06:43;16.20;99.90
9658;DHT22;4867;48.112;11.622;2023-09-12T05:09:10;16.20;99.90
9658;DHT22;4867;48.112;11.622;2023-09-12T05:11:38;16.20;99.90
9658;DHT22;4867;48.112;11.622;2023-09-12T05:14:05;16.20;99.90
9658;DHT22;4867;48.112;11.622;2023-09-12T05:16:33;16.30;99.90
9658;DHT22;4867;48.112;11.622;2023-09-12T05:19:00;16.30;99.90
9658;DHT22;4867;48.112;11.622;2023-09-12T05:21:29;16.40;99.90
9658;DHT22;4867;48.112;11.622;2023-09-12T05:23:56;16.40;99.90
9658;DHT22;4867;48.112;11.622;2023-09-12T05:26:23;16.40;99.90
9658;DHT22;4867;48.112;11.622;2023-09-12T05:28:51;16.40;99.90
9658;DHT22;4867;48.112;11.622;2023-09-12T05:31:19;16.50;99.90
9658;DHT22;4867;48.112;11.622;2023-09-12T05:33:47;16.50;99.90
9658;DHT22;4867;48.112;11.622;2023-09-12T05:36:16;16.60;99.90
9658;DHT22;4867;48.112;11.622;2023-09-12T05:38:43;16.60;99.90
9658;DHT22;4867;48.112;11.622;2023-09-12T05:41:11;16.60;99.90
9658;DHT22;4867;48.112;11.622;2023-09-12T05:43:39;16.80;99.90
9658;DHT22;4867;48.112;11.622;2023-09-12T05:46:06;16.90;99.90
9658;DHT22;4867;48.112;11.622;2023-09-12T05:48:33;16.90;99.90
9658;DHT22;4867;48.112;11.622;2023-09-12T05:51:01;16.90;99.90
9658;DHT22;4867;48.112;11.622;2023-09-12T05:53:29;17.10;99.90
9658;DHT22;4867;48.112;11.622;2023-09-12T05:55:57;17.10;99.90
9658;DHT22;4867;48.112;11.622;2023-09-12T05:58:25;17.10;99.90
9658;DHT22;4867;48.112;11.622;2023-09-12T06:00:52;17.20;99.90
9658;DHT22;4867;48.112;11.622;2023-09-12T06:03:20;17.30;99.90
9658;DHT22;4867;48.112;11.622;2023-09-12T06:05:48;17.40;99.90
9658;DHT22;4867;48.112;11.622;2023-09-12T06:08:16;17.50;99.90
9658;DHT22;4867;48.112;11.622;2023-09-12T06:10:43;17.60;99.90
9658;DHT22;4867;48.112;11.622;2023-09-12T06:13:10;17.60;99.90
9658;DHT22;4867;48.112;11.622;2023-09-12T06:15:40;17.70;99.90
9658;DHT22;4867;48.112;11.622;2023-09-12T06:18:08;17.80;99.90
9658;DHT22;4867;48.112;11.622;2023-09-12T06:20:36;17.90;99.90
9658;DHT22;4867;48.112;11.622;2023-09-12T06:23:03;18.00;99.90
9658;DHT22;4867;48.112;11.622;2023-09-12T06:25:31;18.10;99.90
9658;DHT22;4867;48.112;11.622;2023-09-12T06:27:59;18.20;99.90
9658;DHT22;4867;48.112;11.622;2023-09-12T06:30:26;18.30;99.90
9658;DHT22;4867;48.112;11.622;2023-09-12T06:32:53;18.40;99.90
9658;DHT22;4867;48.112;11.622;2023-09-12T06:35:20;18.40;99.90
9658;DHT22;4867;48.112;11.622;2023-09-12T06:37:48;18.50;99.90
9658;DHT22;4867;48.112;11.622;2023-09-12T06:40:15;18.60;99.90
9658;DHT22;4867;48.112;11.622;2023-09-12T06:42:43;18.70;99.90
9658;DHT22;4867;48.112;11.622;2023-09-12T06:45:10;18.80;99.90
9658;DHT22;4867;48.112;11.622;2023-09-12T06:47:38;19.00;99.90
9658;DHT22;4867;48.112;11.622;2023-09-12T06:50:05;19.10;99.90
9658;DHT22;4867;48.112;11.622;2023-09-12T06:52:38;19.20;99.90
9658;DHT22;4867;48.112;11.622;2023-09-12T06:55:06;19.30;99.90
9658;DHT22;4867;48.112;11.622;2023-09-12T06:57:34;19.40;99.90
9658;DHT22;4867;48.112;11.622;2023-09-12T07:00:02;19.50;99.90
9658;DHT22;4867;48.112;11.622;2023-09-12T07:02:33;19.60;99.90
9658;DHT22;4867;48.112;11.622;2023-09-12T07:05:00;19.70;99.90
9658;DHT22;4867;48.112;11.622;2023-09-12T07:07:27;19.80;99.90
9658;DHT22;4867;48.112;11.622;2023-09-12T07:09:55;19.90;99.90
9658;DHT22;4867;48.112;11.622;2023-09-12T07:12:38;20.00;99.90
9658;DHT22;4867;48.112;11.622;2023-09-12T07:15:05;20.20;99.90
9658;DHT22;4867;48.112;11.622;2023-09-12T07:17:33;20.30;99.90
9658;DHT22;4867;48.112;11.622;2023-09-12T07:20:00;20.50;99.90
9658;DHT22;4867;48.112;11.622;2023-09-12T07:22:27;20.60;99.90
9658;DHT22;4867;48.112;11.622;2023-09-12T07:24:54;20.70;99.90
9658;DHT22;4867;48.112;11.622;2023-09-12T07:27:22;20.80;99.90
9658;DHT22;4867;48.112;11.622;2023-09-12T07:29:49;20.90;99.90
9658;DHT22;4867;48.112;11.622;2023-09-12T07:32:16;20.90;99.90
9658;DHT22;4867;48.112;11.622;2023-09-12T07:34:44;21.00;99.90
9658;DHT22;4867;48.112;11.622;2023-09-12T07:37:15;21.10;99.90
9658;DHT22;4867;48.112;11.622;2023-09-12T07:39:42;21.20;99.90
9658;DHT22;4867;48.112;11.622;2023-09-12T07:42:10;21.20;99.90
9658;DHT22;4867;48.112;11.622;2023-09-12T07:44:37;21.30;99.90
9658;DHT22;4867;48.112;11.622;2023-09-12T07:47:04;21.50;99.90
9658;DHT22;4867;48.112;11.622;2023-09-12T07:49:32;21.60;99.90
9658;DHT22;4867;48.112;11.622;2023-09-12T07:51:59;21.70;99.90
9658;DHT22;4867;48.112;11.622;2023-09-12T07:54:27;21.80;99.90
9658;DHT22;4867;48.112;11.622;2023-09-12T07:56:55;21.90;99.90
9658;DHT22;4867;48.112;11.622;2023-09-12T07:59:22;22.00;99.90
9658;DHT22;4867;48.112;11.622;2023-09-12T08:01:49;22.10;99.90
9658;DHT22;4867;48.112;11.622;2023-09-12T08:04:17;22.20;99.90
9658;DHT22;4867;48.112;11.622;2023-09-12T08:06:44;22.20;99.90
9658;DHT22;4867;48.112;11.622;2023-09-12T08:09:23;22.30;99.90
9658;DHT22;4867;48.112;11.622;2023-09-12T08:11:51;22.50;99.90
9658;DHT22;4867;48.112;11.622;2023-09-12T08:14:18;22.60;99.90
9658;DHT22;4867;48.112;11.622;2023-09-12T08:16:47;22.70;99.90
9658;DHT22;4867;48.112;11.622;2023-09-12T08:19:15;22.80;99.90
9658;DHT22;4867;48.112;11.622;2023-09-12T08:21:45;22.90;99.90
9658;DHT22;4867;48.112;11.622;2023-09-12T08:24:13;23.00;99.90
9658;DHT22;4867;48.112;11.622;2023-09-12T08:26:40;23.10;99.90
9658;DHT22;4867;48.112;11.622;2023-09-12T08:29:07;23.20;99.90
9658;DHT22;4867;48.112;11.622;2023-09-12T08:31:34;23.30;99.90
9658;DHT22;4867;48.112;11.622;2023-09-12T08:34:02;23.40;99.90
9658;DHT22;4867;48.112;11.622;2023-09-12T08:36:29;23.50;99.90
9658;DHT22;4867;48.112;11.622;2023-09-12T08:38:56;23.70;99.90
9658;DHT22;4867;48.112;11.622;2023-09-12T08:41:23;23.70;99.90
9658;DHT22;4867;48.112;11.622;2023-09-12T08:43:51;23.90;99.90
9658;DHT22;4867;48.112;11.622;2023-09-12T08:46:18;23.90;99.90
9658;DHT22;4867;48.112;11.622;2023-09-12T08:48:47;24.00;99.90
9658;DHT22;4867;48.112;11.622;2023-09-12T08:51:16;24.10;99.90
9658;DHT22;4867;48.112;11.622;2023-09-12T08:53:44;24.10;99.90
9658;DHT22;4867;48.112;11.622;2023-09-12T08:56:11;24.20;99.90
9658;DHT22;4867;48.112;11.622;2023-09-12T08:58:39;24.30;99.90
9658;DHT22;4867;48.112;11.622;2023-09-12T09:01:07;24.40;99.90
9658;DHT22;4867;48.112;11.622;2023-09-12T09:03:39;24.60;99.90
9658;DHT22;4867;48.112;11.622;2023-09-12T09:06:09;24.70;99.90
9658;DHT22;4867;48.112;11.622;2023-09-12T09:08:39;24.80;99.90
9658;DHT22;4867;48.112;11.622;2023-09-12T09:11:06;24.90;99.90
9658;DHT22;4867;48.112;11.622;2023-09-12T09:13:34;25.00;99.90
9658;DHT22;4867;48.112;11.622;2023-09-12T09:16:18;25.00;99.90
9658;DHT22;4867;48.112;11.622;2023-09-12T09:19:03;25.10;99.90
9658;DHT22;4867;48.112;11.622;2023-09-12T09:21:33;25.20;99.90
9658;DHT22;4867;48.112;11.622;2023-09-12T09:24:12;25.30;99.90
9658;DHT22;4867;48.112;11.622;2023-09-12T09:26:45;25.40;99.90
9658;DHT22;4867;48.112;11.622;2023-09-12T09:29:20;25.60;99.90
9658;DHT22;4867;48.112;11.622;2023-09-12T09:31:48;25.70;99.90
9658;DHT22;4867;48.112;11.622;2023-09-12T09:34:21;25.90;99.90
9658;DHT22;4867;48.112;11.622;2023-09-12T09:36:53;26.00;99.90
9658;DHT22;4867;48.112;11.622;2023-09-12T09:39:23;26.10;99.90
9658;DHT22;4867;48.112;11.622;2023-09-12T09:41:52;26.20;99.90
9658;DHT22;4867;48.112;11.622;2023-09-12T09:44:26;26.20;99.90
9658;DHT22;4867;48.112;11.622;2023-09-12T09:47:03;26.30;99.90
9658;DHT22;4867;48.112;11.622;2023-09-12T09:49:33;26.30;99.90
9658;DHT22;4867;48.112;11.622;2023-09-12T09:52:04;26.40;99.90
9658;DHT22;4867;48.112;11.622;2023-09-12T09:54:32;26.50;99.90
9658;DHT22;4867;48.112;11.622;2023-09-12T09:57:00;26.70;99.90
9658;DHT22;4867;48.112;11.622;2023-09-12T09:59:27;26.80;99.90
9658;DHT22;4867;48.112;11.622;2023-09-12T10:01:57;26.80;99.90
9658;DHT22;4867;48.112;11.622;2023-09-12T10:04:28;26.90;99.90
9658;DHT22;4867;48.112;11.622;2023-09-12T10:06:57;27.00;99.90
9658;DHT22;4867;48.112;11.622;2023-09-12T10:09:30;27.00;99.90
9658;DHT22;4867;48.112;11.622;2023-09-12T10:11:59;27.10;99.90
9658;DHT22;4867;48.112;11.622;2023-09-12T10:14:27;27.10;99.90
9658;DHT22;4867;48.112;11.622;2023-09-12T10:17:01;27.20;99.90
9658;DHT22;4867;48.112;11.622;2023-09-12T10:19:38;27.30;99.90
9658;DHT22;4867;48.112;11.622;2023-09-12T10:22:14;27.40;99.90
9658;DHT22;4867;48.112;11.622;2023-09-12T10:24:45;27.40;99.90
9658;DHT22;4867;48.112;11.622;2023-09-12T10:27:14;27.50;99.90
9658;DHT22;4867;48.112;11.622;2023-09-12T10:29:42;27.60;99.90
9658;DHT22;4867;48.112;11.622;2023-09-12T10:32:14;27.60;99.90
9658;DHT22;4867;48.112;11.622;2023-09-12T10:34:44;27.70;99.90
9658;DHT22;4867;48.112;11.622;2023-09-12T10:37:15;27.70;99.90
9658;DHT22;4867;48.112;11.622;2023-09-12T10:39:43;27.80;99.90
9658;DHT22;4867;48.112;11.622;2023-09-12T10:42:12;27.80;99.90
9658;DHT22;4867;48.112;11.622;2023-09-12T10:44:40;27.80;99.90
9658;DHT22;4867;48.112;11.622;2023-09-12T10:47:08;27.80;99.90
9658;DHT22;4867;48.112;11.622;2023-09-12T10:49:37;27.80;99.90
9658;DHT22;4867;48.112;11.622;2023-09-12T10:52:04;27.90;99.90
9658;DHT22;4867;48.112;11.622;2023-09-12T10:54:37;28.00;99.90
9658;DHT22;4867;48.112;11.622;2023-09-12T10:57:07;27.90;99.90
9658;DHT22;4867;48.112;11.622;2023-09-12T10:59:35;28.00;99.90
9658;DHT22;4867;48.112;11.622;2023-09-12T11:04:54;28.20;99.90
9658;DHT22;4867;48.112;11.622;2023-09-12T11:07:44;28.30;99.90
9658;DHT22;4867;48.112;11.622;2023-09-12T11:12:49;28.50;99.90
9658;DHT22;4867;48.112;11.622;2023-09-12T11:15:20;28.50;99.90
9658;DHT22;4867;48.112;11.622;2023-09-12T11:18:01;28.50;99.90
9658;DHT22;4867;48.112;11.622;2023-09-12T11:20:49;28.50;99.90
9658;DHT22;4867;48.112;11.622;2023-09-12T11:23:17;28.50;99.90
9658;DHT22;4867;48.112;11.622;2023-09-12T11:25:44;28.60;99.90
9658;DHT22;4867;48.112;11.622;2023-09-12T11:28:12;28.60;99.90
9658;DHT22;4867;48.112;11.622;2023-09-12T11:30:55;28.70;99.90
9658;DHT22;4867;48.112;11.622;2023-09-12T11:33:24;28.70;99.90
9658;DHT22;4867;48.112;11.622;2023-09-12T11:35:54;28.70;99.90
9658;DHT22;4867;48.112;11.622;2023-09-12T11:38:29;28.60;99.90
9658;DHT22;4867;48.112;11.622;2023-09-12T11:41:00;28.60;99.90
9658;DHT22;4867;48.112;11.622;2023-09-12T11:43:28;28.50;99.90
9658;DHT22;4867;48.112;11.622;2023-09-12T11:45:57;28.50;99.90
9658;DHT22;4867;48.112;11.622;2023-09-12T11:48:24;28.60;99.90
9658;DHT22;4867;48.112;11.622;2023-09-12T11:50:55;28.60;99.90
9658;DHT22;4867;48.112;11.622;2023-09-12T11:53:24;28.60;99.90
9658;DHT22;4867;48.112;11.622;2023-09-12T11:55:55;28.60;99.90
9658;DHT22;4867;48.112;11.622;2023-09-12T11:58:24;28.70;99.90
9658;DHT22;4867;48.112;11.622;2023-09-12T12:00:54;28.70;99.90
9658;DHT22;4867;48.112;11.622;2023-09-12T12:03:23;28.80;99.90
9658;DHT22;4867;48.112;11.622;2023-09-12T12:05:51;28.80;99.90
9658;DHT22;4867;48.112;11.622;2023-09-12T12:08:19;29.00;99.90
9658;DHT22;4867;48.112;11.622;2023-09-12T12:10:59;29.10;99.90
9658;DHT22;4867;48.112;11.622;2023-09-12T12:13:27;29.30;99.90
9658;DHT22;4867;48.112;11.622;2023-09-12T12:15:56;29.50;99.90
9658;DHT22;4867;48.112;11.622;2023-09-12T12:18:24;29.50;99.90
9658;DHT22;4867;48.112;11.622;2023-09-12T12:20:52;29.60;99.90
9658;DHT22;4867;48.112;11.622;2023-09-12T12:23:19;29.70;99.90
9658;DHT22;4867;48.112;11.622;2023-09-12T12:25:46;29.90;99.90
9658;DHT22;4867;48.112;11.622;2023-09-12T12:28:16;29.80;99.80
9658;DHT22;4867;48.112;11.622;2023-09-12T12:30:43;29.80;99.90
9658;DHT22;4867;48.112;11.622;2023-09-12T12:33:11;29.70;99.50
9658;DHT22;4867;48.112;11.622;2023-09-12T12:36:02;29.70;98.40
9658;DHT22;4867;48.112;11.622;2023-09-12T12:38:37;29.70;97.80
9658;DHT22;4867;48.112;11.622;2023-09-12T12:41:29;29.60;97.80
9658;DHT22;4867;48.112;11.622;2023-09-12T12:44:13;29.60;97.10
9658;DHT22;4867;48.112;11.622;2023-09-12T12:46:51;29.50;96.40
9658;DHT22;4867;48.112;11.622;2023-09-12T12:49:20;29.50;96.40
9658;DHT22;4867;48.112;11.622;2023-09-12T12:51:48;29.40;97.00
9658;DHT22;4867;48.112;11.622;2023-09-12T12:54:15;29.40;97.10
9658;DHT22;4867;48.112;11.622;2023-09-12T12:56:43;29.50;97.10
9658;DHT22;4867;48.112;11.622;2023-09-12T12:59:12;29.60;97.10
9658;DHT22;4867;48.112;11.622;2023-09-12T13:01:39;29.60;96.90
9658;DHT22;4867;48.112;11.622;2023-09-12T13:04:10;29.60;96.00
9658;DHT22;4867;48.112;11.622;2023-09-12T13:06:37;29.60;96.10
9658;DHT22;4867;48.112;11.622;2023-09-12T13:09:05;29.60;95.30
9658;DHT22;4867;48.112;11.622;2023-09-12T13:11:34;29.60;95.70
9658;DHT22;4867;48.112;11.622;2023-09-12T13:14:04;29.60;95.90
9658;DHT22;4867;48.112;11.622;2023-09-12T13:16:37;29.50;95.00
9658;DHT22;4867;48.112;11.622;2023-09-12T13:19:07;29.60;94.80
9658;DHT22;4867;48.112;11.622;2023-09-12T13:21:35;29.60;94.40
9658;DHT22;4867;48.112;11.622;2023-09-12T13:24:03;29.60;94.50
9658;DHT22;4867;48.112;11.622;2023-09-12T13:26:31;29.60;94.00
9658;DHT22;4867;48.112;11.622;2023-09-12T13:28:58;29.70;94.70
9658;DHT22;4867;48.112;11.622;2023-09-12T13:31:26;29.70;94.00
9658;DHT22;4867;48.112;11.622;2023-09-12T13:33:53;29.60;94.70
9658;DHT22;4867;48.112;11.622;2023-09-12T13:36:20;29.70;94.50
9658;DHT22;4867;48.112;11.622;2023-09-12T13:38:48;29.80;94.10
9658;DHT22;4867;48.112;11.622;2023-09-12T13:41:17;29.80;94.80
9658;DHT22;4867;48.112;11.622;2023-09-12T13:43:45;29.80;94.30
9658;DHT22;4867;48.112;11.622;2023-09-12T13:46:13;29.80;94.30
9658;DHT22;4867;48.112;11.622;2023-09-12T13:48:40;29.80;94.00
9658;DHT22;4867;48.112;11.622;2023-09-12T13:51:08;29.80;92.90
9658;DHT22;4867;48.112;11.622;2023-09-12T13:53:35;29.70;93.00
9658;DHT22;4867;48.112;11.622;2023-09-12T13:56:02;29.70;93.40
9658;DHT22;4867;48.112;11.622;2023-09-12T13:58:29;29.70;93.40
9658;DHT22;4867;48.112;11.622;2023-09-12T14:01:11;29.70;92.90
9658;DHT22;4867;48.112;11.622;2023-09-12T14:03:54;29.70;92.30
9658;DHT22;4867;48.112;11.622;2023-09-12T14:06:22;29.60;90.90
9658;DHT22;4867;48.112;11.622;2023-09-12T14:08:51;29.60;90.70
9658;DHT22;4867;48.112;11.622;2023-09-12T14:11:18;29.60;91.00
9658;DHT22;4867;48.112;11.622;2023-09-12T14:14:01;29.70;91.00
9658;DHT22;4867;48.112;11.622;2023-09-12T14:16:43;29.70;91.60
9658;DHT22;4867;48.112;11.622;2023-09-12T14:19:14;29.60;93.60
9658;DHT22;4867;48.112;11.622;2023-09-12T14:21:43;29.70;94.50
9658;DHT22;4867;48.112;11.622;2023-09-12T14:24:15;29.70;95.90
9658;DHT22;4867;48.112;11.622;2023-09-12T14:26:44;29.60;96.40
9658;DHT22;4867;48.112;11.622;2023-09-12T14:29:12;29.50;96.50
9658;DHT22;4867;48.112;11.622;2023-09-12T14:31:41;29.30;97.10
9658;DHT22;4867;48.112;11.622;2023-09-12T14:34:17;29.30;97.20
9658;DHT22;4867;48.112;11.622;2023-09-12T14:36:44;29.30;97.80
9658;DHT22;4867;48.112;11.622;2023-09-12T14:39:13;29.30;97.70
9658;DHT22;4867;48.112;11.622;2023-09-12T14:41:41;29.30;97.80
9658;DHT22;4867;48.112;11.622;2023-09-12T14:44:10;29.30;97.80
9658;DHT22;4867;48.112;11.622;2023-09-12T14:46:38;29.30;97.90
9658;DHT22;4867;48.112;11.622;2023-09-12T14:49:05;29.30;98.00
9658;DHT22;4867;48.112;11.622;2023-09-12T14:51:33;29.30;98.10
9658;DHT22;4867;48.112;11.622;2023-09-12T14:54:04;29.30;97.80
9658;DHT22;4867;48.112;11.622;2023-09-12T14:56:33;29.30;97.80
9658;DHT22;4867;48.112;11.622;2023-09-12T14:59:01;29.40;97.90
9658;DHT22;4867;48.112;11.622;2023-09-12T15:01:28;29.40;98.00
9658;DHT22;4867;48.112;11.622;2023-09-12T15:03:56;29.50;98.40
9658;DHT22;4867;48.112;11.622;2023-09-12T15:06:24;29.50;98.20
9658;DHT22;4867;48.112;11.622;2023-09-12T15:08:52;29.50;98.50
9658;DHT22;4867;48.112;11.622;2023-09-12T15:11:19;29.40;98.60
9658;DHT22;4867;48.112;11.622;2023-09-12T15:13:46;29.40;98.80
9658;DHT22;4867;48.112;11.622;2023-09-12T15:16:15;29.40;98.70
9658;DHT22;4867;48.112;11.622;2023-09-12T15:18:42;29.40;98.50
9658;DHT22;4867;48.112;11.622;2023-09-12T15:21:10;29.40;98.70
9658;DHT22;4867;48.112;11.622;2023-09-12T15:23:37;29.40;99.20
9658;DHT22;4867;48.112;11.622;2023-09-12T15:26:04;29.20;98.60
9658;DHT22;4867;48.112;11.622;2023-09-12T15:28:32;29.20;98.90
9658;DHT22;4867;48.112;11.622;2023-09-12T15:30:59;29.20;99.20
9658;DHT22;4867;48.112;11.622;2023-09-12T15:33:30;29.20;99.10
9658;DHT22;4867;48.112;11.622;2023-09-12T15:35:57;29.10;99.20
9658;DHT22;4867;48.112;11.622;2023-09-12T15:38:25;29.10;99.00
9658;DHT22;4867;48.112;11.622;2023-09-12T15:40:52;29.00;99.20
9658;DHT22;4867;48.112;11.622;2023-09-12T15:43:23;29.00;99.60
9658;DHT22;4867;48.112;11.622;2023-09-12T15:45:51;28.90;99.60
9658;DHT22;4867;48.112;11.622;2023-09-12T15:48:20;28.90;99.60
9658;DHT22;4867;48.112;11.622;2023-09-12T15:50:47;28.80;99.50
9658;DHT22;4867;48.112;11.622;2023-09-12T15:53:15;28.70;99.70
9658;DHT22;4867;48.112;11.622;2023-09-12T15:55:42;28.60;99.90
9658;DHT22;4867;48.112;11.622;2023-09-12T15:58:10;28.40;99.90
9658;DHT22;4867;48.112;11.622;2023-09-12T16:00:37;28.30;99.90
9658;DHT22;4867;48.112;11.622;2023-09-12T16:03:04;28.20;99.90
9658;DHT22;4867;48.112;11.622;2023-09-12T16:05:32;28.20;99.90